Time;durP1;ratioP1;P1;durP2;ratioP2;P2;SDS_P1;SDS_P2;PMS_P1;PMS_P2;Temp;Humidity;BMP_temperature;BMP_pressure;BME280_temperature;BME280_humidity;BME280_pressure;Samples;Min_cycle;Max_cycle;Signal;HPM_P1;HPM_P2
2023/11/01 00:00:43;;;;;;;22.83;5.57;;;;;;;11.50;100.00;98122.66;5046370;28;20434;-43
2023/11/01 00:03:12;;;;;;;29.95;5.20;;;;;;;11.58;100.00;98123.34;5047491;28;20041;-44
2023/11/01 00:05:39;;;;;;;37.03;6.07;;;;;;;11.64;100.00;98113.38;5048287;28;20091;-44
2023/11/01 00:08:06;;;;;;;41.70;7.20;;;;;;;11.69;100.00;98098.28;5048100;28;20040;-44
2023/11/01 00:10:33;;;;;;;36.03;7.70;;;;;;;11.72;100.00;98091.91;5048679;28;20041;-43
2023/11/01 00:13:00;;;;;;;28.48;4.43;;;;;;;11.73;100.00;98088.72;5048262;28;20037;-43
2023/11/01 00:15:26;;;;;;;32.30;5.78;;;;;;;11.76;100.00;98087.09;5050706;28;20048;-45
2023/11/01 00:17:54;;;;;;;15.80;3.95;;;;;;;11.79;100.00;98080.72;5048748;28;20044;-43
2023/11/01 00:20:20;;;;;;;24.40;5.90;;;;;;;11.81;100.00;98078.34;5048329;28;20037;-45
2023/11/01 00:22:47;;;;;;;40.13;5.43;;;;;;;11.84;100.00;98080.25;5049301;28;20045;-44
2023/11/01 00:25:14;;;;;;;28.77;5.18;;;;;;;11.85;100.00;98067.97;5049027;28;20040;-43
2023/11/01 00:27:41;;;;;;;35.67;6.53;;;;;;;11.87;100.00;98060.81;5049181;28;20049;-43
2023/11/01 00:30:08;;;;;;;29.42;6.60;;;;;;;11.89;100.00;98050.06;5048259;28;20045;-43
2023/11/01 00:32:34;;;;;;;22.83;6.03;;;;;;;11.91;100.00;98044.13;5048394;28;20037;-45
2023/11/01 00:35:01;;;;;;;26.92;6.28;;;;;;;11.94;100.00;98032.19;5048769;28;20447;-43
2023/11/01 00:37:28;;;;;;;41.22;6.45;;;;;;;11.95;100.00;98022.66;5047997;28;20754;-43
2023/11/01 00:39:55;;;;;;;30.15;7.07;;;;;;;11.97;100.00;98015.47;5045757;28;20115;-43
2023/11/01 00:42:22;;;;;;;44.33;8.07;;;;;;;11.99;100.00;98024.16;5049031;28;20506;-43
2023/11/01 00:44:49;;;;;;;45.72;7.68;;;;;;;12.00;100.00;98008.31;5035254;28;20045;-44
2023/11/01 00:47:15;;;;;;;51.97;7.80;;;;;;;12.01;100.00;98004.34;5048575;28;21069;-43
2023/11/01 00:49:43;;;;;;;34.55;4.90;;;;;;;12.02;100.00;98011.47;5055267;28;20131;-44
2023/11/01 00:52:10;;;;;;;32.03;6.00;;;;;;;12.03;100.00;97990.84;5054317;28;20487;-43
2023/11/01 00:54:36;;;;;;;30.17;4.28;;;;;;;12.02;100.00;97990.03;5048010;28;20072;-42
2023/11/01 00:57:03;;;;;;;20.60;4.07;;;;;;;12.03;100.00;97986.09;5047172;28;20048;-43
2023/11/01 00:59:30;;;;;;;27.75;5.05;;;;;;;12.02;100.00;97978.19;5047885;28;20073;-43
2023/11/01 01:01:56;;;;;;;22.50;4.75;;;;;;;12.03;100.00;97968.66;5046516;28;20131;-43
2023/11/01 01:04:23;;;;;;;20.83;4.50;;;;;;;12.01;100.00;97968.28;5048431;28;20044;-45
2023/11/01 01:06:50;;;;;;;23.90;4.82;;;;;;;12.01;100.00;97959.97;5046392;28;20075;-43
2023/11/01 01:09:17;;;;;;;20.00;3.80;;;;;;;12.00;100.00;97955.63;5048096;28;20068;-43
2023/11/01 01:11:43;;;;;;;24.30;4.60;;;;;;;12.00;100.00;97945.31;5030278;28;20056;-50
2023/11/01 01:14:10;;;;;;;18.38;4.20;;;;;;;12.00;100.00;97941.75;5047854;28;20080;-44
2023/11/01 01:16:37;;;;;;;28.80;5.32;;;;;;;12.00;100.00;97936.22;5047084;28;20037;-43
2023/11/01 01:19:04;;;;;;;31.55;4.90;;;;;;;12.01;100.00;97927.50;5048124;28;20570;-45
2023/11/01 01:21:30;;;;;;;23.38;5.13;;;;;;;11.99;100.00;97921.56;5048048;28;20053;-43
2023/11/01 01:23:59;;;;;;;32.65;6.43;;;;;;;11.98;100.00;97910.91;5047931;28;20102;-43
2023/11/01 01:26:25;;;;;;;26.83;4.50;;;;;;;11.97;100.00;97915.66;5047659;28;20033;-43
2023/11/01 01:28:54;;;;;;;26.55;4.75;;;;;;;11.98;100.00;97902.59;5056852;28;20053;-44
2023/11/01 01:31:21;;;;;;;24.02;6.07;;;;;;;11.97;100.00;97895.47;5052209;28;20127;-43
2023/11/01 01:33:48;;;;;;;28.88;5.13;;;;;;;11.96;100.00;97894.72;5047753;28;20041;-44
2023/11/01 01:36:15;;;;;;;26.52;4.75;;;;;;;11.96;100.00;97891.94;5047208;28;20052;-43
2023/11/01 01:38:42;;;;;;;32.22;4.93;;;;;;;11.97;100.00;97881.59;5032191;28;20068;-43
2023/11/01 01:41:08;;;;;;;28.90;4.78;;;;;;;11.97;100.00;97879.63;5047925;28;20052;-43
2023/11/01 01:43:35;;;;;;;30.42;5.55;;;;;;;11.97;100.00;97873.28;5047982;28;20044;-43
2023/11/01 01:46:16;;;;;;;33.05;5.63;;;;;;;11.97;100.00;97864.97;5064467;28;20041;-43
2023/11/01 01:48:44;;;;;;;31.20;5.93;;;;;;;11.98;100.00;97859.03;5047437;28;20051;-43
2023/11/01 01:51:12;;;;;;;28.33;5.93;;;;;;;11.98;100.00;97850.69;5030092;28;20649;-44
2023/11/01 01:53:44;;;;;;;28.02;6.38;;;;;;;11.97;100.00;97831.69;5048682;28;20437;-43
2023/11/01 01:56:12;;;;;;;29.85;5.40;;;;;;;11.97;100.00;97826.16;5047761;28;20494;-44
2023/11/01 01:58:41;;;;;;;40.67;6.70;;;;;;;11.95;100.00;97800.84;5046815;28;20033;-46
2023/11/01 02:01:09;;;;;;;32.15;6.00;;;;;;;11.95;100.00;97800.84;5047418;28;20045;-43
2023/11/01 02:03:36;;;;;;;26.95;5.90;;;;;;;11.95;100.00;97806.41;5046930;28;20135;-44
2023/11/01 02:06:05;;;;;;;29.80;5.32;;;;;;;11.93;100.00;97803.28;5047763;28;20033;-43
2023/11/01 02:08:32;;;;;;;27.98;5.25;;;;;;;11.92;100.00;97812.78;5046996;28;20072;-43
2023/11/01 02:10:59;;;;;;;23.27;5.22;;;;;;;11.91;100.00;97802.94;5047810;28;20057;-42
2023/11/01 02:13:26;;;;;;;17.75;5.53;;;;;;;11.91;100.00;97797.38;5046652;28;20057;-46
2023/11/01 02:15:53;;;;;;;33.90;4.65;;;;;;;11.91;100.00;97780.75;5047156;28;20044;-43
2023/11/01 02:18:19;;;;;;;17.05;3.47;;;;;;;11.91;100.00;97775.19;5047038;28;20040;-45
2023/11/01 02:20:48;;;;;;;17.35;3.00;;;;;;;11.89;100.00;97764.53;5038844;28;20050;-43
2023/11/01 02:23:15;;;;;;;14.55;4.20;;;;;;;11.89;100.00;97763.72;5048088;28;20037;-43
2023/11/01 02:25:43;;;;;;;19.08;2.78;;;;;;;11.87;100.00;97760.63;5047712;28;20048;-43
2023/11/01 02:28:12;;;;;;;9.95;2.33;;;;;;;11.85;100.00;97749.19;5046421;28;20040;-43
2023/11/01 02:30:42;;;;;;;11.75;2.42;;;;;;;11.83;100.00;97748.81;5046812;28;20037;-43
2023/11/01 02:33:09;;;;;;;5.97;1.42;;;;;;;11.82;100.00;97736.16;5046769;28;20387;-45
2023/11/01 02:35:37;;;;;;;5.15;1.25;;;;;;;11.80;100.00;97733.03;5045886;28;20037;-44
2023/11/01 02:38:04;;;;;;;7.22;1.50;;;;;;;11.77;100.00;97729.13;5046581;28;20048;-43
2023/11/01 02:40:32;;;;;;;12.88;1.70;;;;;;;11.75;100.00;97711.38;5047163;28;20503;-43
2023/11/01 02:42:59;;;;;;;14.07;2.55;;;;;;;11.73;100.00;97716.56;5046972;28;20072;-43
2023/11/01 02:45:25;;;;;;;13.13;1.73;;;;;;;11.71;100.00;97703.13;5039020;28;20052;-43
2023/11/01 02:47:53;;;;;;;8.18;1.92;;;;;;;11.70;100.00;97698.00;5053981;28;20111;-44
2023/11/01 02:50:20;;;;;;;7.78;1.95;;;;;;;11.70;100.00;97684.94;5045581;28;20111;-43
2023/11/01 02:52:47;;;;;;;7.80;1.60;;;;;;;11.69;100.00;97672.28;5046967;28;20063;-42
2023/11/01 02:55:15;;;;;;;10.07;2.35;;;;;;;11.69;100.00;97677.81;5059252;28;20127;-43
2023/11/01 02:57:43;;;;;;;9.98;2.40;;;;;;;11.69;100.00;97665.97;5058783;28;20044;-44
2023/11/01 03:02:53;;;;;;;8.55;1.70;;;;;;;11.67;100.00;97635.09;4989872;22;20128;-43
2023/11/01 03:05:22;;;;;;;11.25;2.00;;;;;;;11.63;100.00;97624.88;5034919;28;20049;-46
2023/11/01 03:07:48;;;;;;;14.38;3.58;;;;;;;11.63;100.00;97624.88;5045175;28;20036;-44
2023/11/01 03:10:15;;;;;;;18.35;4.72;;;;;;;11.65;100.00;97620.91;5042399;28;20045;-45
2023/11/01 03:12:43;;;;;;;18.73;4.25;;;;;;;11.66;100.00;97611.34;5049584;28;20044;-43
2023/11/01 03:15:11;;;;;;;20.48;4.72;;;;;;;11.69;100.00;97605.00;5048677;28;20694;-49
2023/11/01 03:17:39;;;;;;;30.95;6.47;;;;;;;11.70;100.00;97599.03;5049361;28;20052;-46
2023/11/01 03:20:07;;;;;;;23.13;5.03;;;;;;;11.73;100.00;97597.41;5045845;28;20525;-49
2023/11/01 03:22:34;;;;;;;27.65;5.90;;;;;;;11.74;100.00;97579.53;5049940;28;20080;-44
2023/11/01 03:25:03;;;;;;;35.42;6.50;;;;;;;11.77;100.00;97592.53;5050439;28;20068;-46
2023/11/01 03:27:30;;;;;;;27.77;5.20;;;;;;;11.78;100.00;97580.25;5039470;28;20046;-47
2023/11/01 03:29:57;;;;;;;25.00;5.43;;;;;;;11.78;100.00;97580.25;5046886;28;20540;-49
2023/11/01 03:32:23;;;;;;;25.00;6.28;;;;;;;11.81;100.00;97584.94;5049704;28;20048;-46
2023/11/01 03:34:51;;;;;;;29.15;4.85;;;;;;;11.80;100.00;97578.63;5045895;28;20060;-45
2023/11/01 03:37:19;;;;;;;31.08;6.55;;;;;;;11.82;100.00;97569.84;5049337;28;20099;-44
2023/11/01 03:39:46;;;;;;;19.67;4.70;;;;;;;11.81;100.00;97560.00;5049777;28;20055;-44
2023/11/01 03:42:13;;;;;;;23.92;5.47;;;;;;;11.83;100.00;97557.56;5049203;28;20044;-45
2023/11/01 03:44:41;;;;;;;27.83;4.45;;;;;;;11.81;100.00;97558.00;5049784;28;20048;-48
2023/11/01 03:47:08;;;;;;;25.15;4.18;;;;;;;11.80;100.00;97548.13;5032083;28;20053;-52
2023/11/01 03:49:35;;;;;;;33.22;4.90;;;;;;;11.80;100.00;97550.13;5049355;28;20527;-46
2023/11/01 03:52:03;;;;;;;25.33;4.07;;;;;;;11.80;100.00;97548.13;5048813;28;20152;-43
2023/11/01 03:54:33;;;;;;;22.27;3.42;;;;;;;11.79;100.00;97537.47;5049385;28;20041;-49
2023/11/01 03:57:02;;;;;;;20.90;3.47;;;;;;;11.77;100.00;97539.88;5049708;28;20136;-47
2023/11/01 03:59:30;;;;;;;21.00;4.68;;;;;;;11.77;100.00;97550.97;5044166;28;20056;-45
2023/11/01 04:01:57;;;;;;;25.30;4.90;;;;;;;11.76;100.00;97558.50;5049023;28;20082;-45
2023/11/01 04:04:24;;;;;;;20.55;4.38;;;;;;;11.76;100.00;97555.72;5049686;28;20044;-43
2023/11/01 04:06:51;;;;;;;24.15;5.20;;;;;;;11.75;100.00;97550.63;5048798;28;20033;-45
2023/11/01 04:09:18;;;;;;;27.60;7.25;;;;;;;11.74;100.00;97543.50;5049280;28;20052;-49
2023/11/01 04:11:45;;;;;;;25.02;5.20;;;;;;;11.74;100.00;97551.81;5048903;28;20045;-50
2023/11/01 04:14:13;;;;;;;23.33;4.93;;;;;;;11.72;100.00;97559.78;5048779;28;20108;-46
2023/11/01 04:16:39;;;;;;;16.90;3.53;;;;;;;11.70;100.00;97551.94;5047869;28;20044;-43
2023/11/01 04:19:07;;;;;;;13.88;3.00;;;;;;;11.69;100.00;97557.88;5049238;28;20144;-42
2023/11/01 04:21:33;;;;;;;21.35;4.20;;;;;;;11.70;100.00;97565.00;5032099;28;20049;-43
2023/11/01 04:24:00;;;;;;;15.85;2.63;;;;;;;11.68;100.00;97575.69;5048712;28;20611;-44
2023/11/01 04:26:27;;;;;;;10.07;1.63;;;;;;;11.65;100.00;97571.78;5048714;28;20045;-45
2023/11/01 04:28:54;;;;;;;7.43;1.40;;;;;;;11.61;100.00;97571.88;5040370;28;20038;-43
2023/11/01 04:31:24;;;;;;;5.72;1.45;;;;;;;11.56;100.00;97564.06;5039162;28;20479;-47
2023/11/01 04:33:54;;;;;;;7.00;0.90;;;;;;;11.53;100.00;97566.91;5043046;28;20583;-42
2023/11/01 04:36:24;;;;;;;7.40;1.05;;;;;;;11.48;100.00;97551.56;5046576;28;20629;-43
2023/11/01 04:38:53;;;;;;;4.00;0.50;;;;;;;11.43;100.00;97543.78;5047720;28;20025;-42
2023/11/01 04:41:20;;;;;;;4.05;1.10;;;;;;;11.39;100.00;97523.66;5048357;28;20041;-48
2023/11/01 04:43:48;;;;;;;4.25;0.95;;;;;;;11.35;100.00;97509.13;5048380;28;20534;-44
2023/11/01 04:46:14;;;;;;;0.40;0.30;;;;;;;11.32;100.00;97504.44;5041632;28;20453;-44
2023/11/01 04:48:42;;;;;;;1.17;0.60;;;;;;;11.31;100.00;97486.25;5041588;28;20045;-43
2023/11/01 04:51:09;;;;;;;6.72;0.80;;;;;;;11.30;100.00;97479.16;5038633;28;20044;-44
2023/11/01 04:53:36;;;;;;;4.20;0.60;;;;;;;11.28;100.00;97478.03;5047123;28;20378;-43
2023/11/01 04:56:05;;;;;;;2.15;0.40;;;;;;;11.26;100.00;97483.19;5048092;28;20045;-43
2023/11/01 04:58:36;;;;;;;3.38;0.63;;;;;;;11.21;100.00;97487.28;5046786;28;20045;-45
2023/11/01 05:01:07;;;;;;;1.63;0.55;;;;;;;11.17;100.00;97494.88;5038970;28;20048;-43
2023/11/01 05:03:36;;;;;;;2.83;0.50;;;;;;;11.12;100.00;97495.34;5047752;28;20049;-46
2023/11/01 05:06:04;;;;;;;1.80;0.30;;;;;;;11.09;100.00;97487.94;5043313;28;20048;-44
2023/11/01 05:08:31;;;;;;;0.50;0.20;;;;;;;11.05;100.00;97484.44;5045967;28;20072;-45
2023/11/01 05:10:58;;;;;;;0.82;0.28;;;;;;;11.04;100.00;97487.66;5043664;28;20049;-43
2023/11/01 05:13:24;;;;;;;0.60;0.32;;;;;;;11.00;100.00;97490.47;5046880;28;20041;-46
2023/11/01 05:15:52;;;;;;;2.17;0.30;;;;;;;10.96;100.00;97481.50;5047509;28;20200;-43
2023/11/01 05:18:18;;;;;;;2.20;0.45;;;;;;;10.92;100.00;97480.75;5047243;28;20060;-43
2023/11/01 05:20:45;;;;;;;1.75;0.40;;;;;;;10.90;100.00;97477.66;5048014;28;20040;-44
2023/11/01 05:23:12;;;;;;;2.60;0.20;;;;;;;10.84;100.00;97471.03;5034820;28;20045;-43
2023/11/01 05:25:40;;;;;;;5.20;1.17;;;;;;;10.79;100.00;97461.25;5046313;28;20029;-43
2023/11/01 05:28:07;;;;;;;4.57;0.88;;;;;;;10.78;100.00;97469.97;5047102;28;20482;-47
2023/11/01 05:30:34;;;;;;;3.03;0.68;;;;;;;10.75;100.00;97474.38;5047844;28;20140;-45
2023/11/01 05:33:01;;;;;;;3.03;0.60;;;;;;;10.73;100.00;97467.69;5030929;28;20064;-46
2023/11/01 05:35:27;;;;;;;12.13;1.58;;;;;;;10.71;100.00;97472.88;5047083;28;20126;-43
2023/11/01 05:37:54;;;;;;;2.15;0.50;;;;;;;10.67;100.00;97474.97;5048083;28;20040;-43
2023/11/01 05:40:21;;;;;;;3.40;0.73;;;;;;;10.63;100.00;97463.16;5043222;28;20041;-43
2023/11/01 05:42:48;;;;;;;1.80;0.73;;;;;;;10.59;100.00;97457.69;5047417;28;20510;-43
2023/11/01 05:45:20;;;;;;;6.22;0.57;;;;;;;10.56;100.00;97466.88;5038625;28;20029;-43
2023/11/01 05:47:50;;;;;;;2.03;0.57;;;;;;;10.57;100.00;97464.84;5038372;28;20040;-45
2023/11/01 05:50:23;;;;;;;2.63;0.70;;;;;;;10.56;100.00;97460.53;5048173;28;20098;-43
2023/11/01 05:52:53;;;;;;;3.63;0.43;;;;;;;10.52;100.00;97448.75;5047011;28;20791;-43
2023/11/01 05:55:20;;;;;;;1.67;0.82;;;;;;;10.49;100.00;97442.09;5047447;28;20076;-44
2023/11/01 05:57:59;;;;;;;4.57;1.10;;;;;;;10.48;100.00;97456.34;5047511;28;20067;-45
2023/11/01 06:00:26;;;;;;;4.03;0.98;;;;;;;10.46;100.00;97444.94;5047073;28;20052;-45
2023/11/01 06:02:53;;;;;;;3.92;0.65;;;;;;;10.42;100.00;97436.69;5046662;28;20138;-44
2023/11/01 06:05:22;;;;;;;3.92;0.93;;;;;;;10.41;100.00;97440.66;5044944;28;20442;-45
2023/11/01 06:07:50;;;;;;;3.60;1.23;;;;;;;10.38;100.00;97439.53;5037010;28;20083;-43
2023/11/01 06:10:17;;;;;;;4.88;0.85;;;;;;;10.34;100.00;97421.44;5047005;28;20037;-44
2023/11/01 06:12:44;;;;;;;7.43;1.55;;;;;;;10.32;100.00;97430.19;5047616;28;20029;-46
2023/11/01 06:15:11;;;;;;;7.90;1.13;;;;;;;10.29;100.00;97421.94;5046955;28;20046;-46
2023/11/01 06:17:39;;;;;;;5.20;1.63;;;;;;;10.24;100.00;97408.63;5046847;28;20060;-50
2023/11/01 06:20:06;;;;;;;9.50;1.65;;;;;;;10.21;100.00;97409.47;5047911;28;20074;-45
2023/11/01 06:22:33;;;;;;;6.05;1.75;;;;;;;10.17;100.00;97401.22;5046785;28;20117;-46
2023/11/01 06:25:01;;;;;;;9.85;1.83;;;;;;;10.15;100.00;97395.34;5047128;28;20457;-47
2023/11/01 06:27:31;;;;;;;9.32;1.67;;;;;;;10.11;100.00;97405.63;5047759;28;20037;-43
2023/11/01 06:29:57;;;;;;;7.25;1.60;;;;;;;10.10;100.00;97397.78;5046298;28;20443;-41
2023/11/01 06:32:24;;;;;;;12.75;2.45;;;;;;;10.08;100.00;97381.63;5045070;28;20086;-45
2023/11/01 06:34:51;;;;;;;7.00;2.05;;;;;;;10.07;100.00;97385.59;5045142;28;20039;-43
2023/11/01 06:37:18;;;;;;;7.70;2.13;;;;;;;10.05;100.00;97379.72;5043605;28;20379;-44
2023/11/01 06:39:44;;;;;;;9.48;1.70;;;;;;;10.05;100.00;97376.16;5045905;28;20140;-45
2023/11/01 06:42:11;;;;;;;12.02;2.10;;;;;;;10.06;100.00;97384.03;5038142;28;20731;-43
2023/11/01 06:44:38;;;;;;;15.77;3.03;;;;;;;10.03;100.00;97382.13;5049414;28;20106;-43
2023/11/01 06:47:04;;;;;;;19.67;4.90;;;;;;;10.03;100.00;97376.59;5047728;28;20041;-46
2023/11/01 06:49:34;;;;;;;9.70;2.70;;;;;;;10.01;100.00;97367.13;5041965;28;20045;-44
2023/11/01 06:52:01;;;;;;;17.73;2.65;;;;;;;10.00;100.00;97371.13;5049164;28;20120;-43
2023/11/01 06:54:28;;;;;;;13.60;3.13;;;;;;;9.96;100.00;97376.72;5037146;28;20079;-45
2023/11/01 06:56:56;;;;;;;14.63;3.33;;;;;;;9.94;100.00;97362.53;5048610;28;20036;-45
2023/11/01 06:59:23;;;;;;;11.13;3.28;;;;;;;9.94;100.00;97359.00;5045757;28;20029;-43
2023/11/01 07:01:49;;;;;;;14.10;2.80;;;;;;;9.94;100.00;97356.22;5043344;28;20072;-44
2023/11/01 07:04:16;;;;;;;11.82;2.38;;;;;;;9.95;100.00;97350.28;5048326;28;20052;-45
2023/11/01 07:06:43;;;;;;;12.82;2.90;;;;;;;9.95;100.00;97352.28;5046699;28;20121;-46
2023/11/01 07:09:10;;;;;;;19.02;3.58;;;;;;;9.99;100.00;97364.81;5048280;28;20119;-44
2023/11/01 07:11:37;;;;;;;41.88;12.68;;;;;;;9.99;100.00;97353.75;5048049;28;20029;-46
2023/11/01 07:14:04;;;;;;;72.28;21.50;;;;;;;9.97;100.00;97356.16;5030734;28;20136;-44
2023/11/01 07:16:31;;;;;;;97.82;31.23;;;;;;;9.98;100.00;97338.38;5047966;28;20575;-45
2023/11/01 07:18:58;;;;;;;102.28;31.50;;;;;;;9.98;100.00;97334.84;5048932;28;20130;-43
2023/11/01 07:21:25;;;;;;;82.03;26.73;;;;;;;9.97;100.00;97325.78;5048893;28;20045;-47
2023/11/01 07:23:51;;;;;;;59.97;19.02;;;;;;;9.96;100.00;97320.66;5048290;28;20053;-47
2023/11/01 07:26:18;;;;;;;69.82;21.42;;;;;;;9.95;100.00;97314.38;5047103;28;20469;-44
2023/11/01 07:28:45;;;;;;;47.88;12.55;;;;;;;9.93;100.00;97305.72;5042813;28;20046;-45
2023/11/01 07:31:13;;;;;;;51.15;12.65;;;;;;;9.91;100.00;97286.00;5047542;28;20037;-48
2023/11/01 07:33:42;;;;;;;35.83;12.23;;;;;;;9.88;100.00;97292.38;5038201;28;20096;-42
2023/11/01 07:36:10;;;;;;;21.52;7.30;;;;;;;9.86;100.00;97286.50;5045155;28;20107;-50
2023/11/01 07:38:37;;;;;;;33.30;9.98;;;;;;;9.84;100.00;97277.88;5045190;28;20041;-44
2023/11/01 07:41:07;;;;;;;23.40;6.30;;;;;;;9.82;100.00;97285.81;5046257;28;20059;-44
2023/11/01 07:43:34;;;;;;;20.83;6.63;;;;;;;9.80;100.00;97271.63;5038636;28;20397;-46
2023/11/01 07:46:01;;;;;;;16.60;5.68;;;;;;;9.80;100.00;97271.63;5045554;28;20042;-45
2023/11/01 07:48:28;;;;;;;22.75;5.28;;;;;;;9.78;100.00;97265.75;5039213;28;20037;-50
2023/11/01 07:50:55;;;;;;;17.73;5.50;;;;;;;9.76;100.00;97254.34;5048760;28;20162;-46
2023/11/01 07:53:22;;;;;;;25.10;5.00;;;;;;;9.74;100.00;97254.00;5047814;28;20141;-48
2023/11/01 07:55:48;;;;;;;16.30;3.35;;;;;;;9.71;100.00;97252.88;5035823;28;20048;-47
2023/11/01 07:58:19;;;;;;;23.63;4.65;;;;;;;9.72;100.00;97248.09;5043705;28;20049;-45
2023/11/01 08:00:45;;;;;;;10.23;3.55;;;;;;;9.71;100.00;97252.88;5046195;28;20124;-48
2023/11/01 08:03:12;;;;;;;18.38;4.47;;;;;;;9.72;100.00;97246.13;5047564;28;20065;-45
2023/11/01 08:05:39;;;;;;;21.60;3.55;;;;;;;9.74;100.00;97248.47;5047498;28;20048;-45
2023/11/01 08:08:07;;;;;;;16.60;2.90;;;;;;;9.75;100.00;97241.72;5047706;28;20430;-46
2023/11/01 08:10:33;;;;;;;15.80;3.60;;;;;;;9.78;100.00;97251.94;5046355;28;20072;-48
2023/11/01 08:13:00;;;;;;;12.52;2.55;;;;;;;9.77;100.00;97244.84;5046850;28;20466;-44
2023/11/01 08:15:27;;;;;;;19.10;2.88;;;;;;;9.79;100.00;97234.94;5047991;28;20079;-47
2023/11/01 08:17:54;;;;;;;15.02;2.80;;;;;;;9.82;100.00;97230.56;5022521;28;20087;-43
2023/11/01 08:20:24;;;;;;;16.98;2.70;;;;;;;9.86;100.00;97233.22;5038240;28;20044;-46
2023/11/01 08:22:51;;;;;;;22.65;4.10;;;;;;;9.91;100.00;97211.41;5047928;28;20049;-45
2023/11/01 08:25:22;;;;;;;12.27;3.25;;;;;;;9.94;100.00;97196.75;5048358;28;20080;-43
2023/11/01 08:27:49;;;;;;;19.70;3.35;;;;;;;9.99;100.00;97199.00;5046343;28;20049;-50
2023/11/01 08:30:17;;;;;;;19.45;4.47;;;;;;;10.05;100.00;97186.25;5047444;28;20152;-43
2023/11/01 08:32:43;;;;;;;16.33;4.03;;;;;;;10.08;100.00;97188.16;5045096;28;20049;-44
2023/11/01 08:35:11;;;;;;;17.90;4.47;;;;;;;10.11;100.00;97184.53;5039049;28;20088;-45
2023/11/01 08:37:37;;;;;;;11.25;3.17;;;;;;;10.17;100.00;97174.56;5046464;28;20084;-44
2023/11/01 08:40:05;;;;;;;12.68;2.40;;;;;;;10.20;100.00;97170.94;5038038;28;20045;-44
2023/11/01 08:42:32;;;;;;;8.35;2.00;;;;;;;10.24;100.00;97171.66;5046158;28;20155;-43
2023/11/01 08:44:59;;;;;;;8.88;1.98;;;;;;;10.27;100.00;97165.25;5046200;28;20108;-44
2023/11/01 08:47:31;;;;;;;9.88;3.45;;;;;;;10.27;100.00;97162.47;5046680;28;20144;-44
2023/11/01 08:49:59;;;;;;;15.52;2.47;;;;;;;10.29;100.00;97159.28;5045683;28;20053;-45
2023/11/01 08:52:26;;;;;;;12.90;2.05;;;;;;;10.33;100.00;97159.97;5042983;28;20111;-44
2023/11/01 08:54:52;;;;;;;10.15;4.15;;;;;;;10.35;100.00;97169.41;5046063;28;20033;-43
2023/11/01 08:57:23;;;;;;;13.25;3.58;;;;;;;10.37;100.00;97169.75;5045978;28;20759;-44
2023/11/01 08:59:50;;;;;;;16.98;3.58;;;;;;;10.38;100.00;97159.47;5045121;28;20040;-45
2023/11/01 09:02:18;;;;;;;16.55;3.53;;;;;;;10.41;100.00;97158.59;5043054;28;20578;-42
2023/11/01 09:04:44;;;;;;;18.30;3.65;;;;;;;10.46;100.00;97160.09;5046396;28;20045;-43
2023/11/01 09:07:11;;;;;;;14.48;3.58;;;;;;;10.50;100.00;97166.31;5036855;28;20059;-43
2023/11/01 09:09:38;;;;;;;24.77;3.75;;;;;;;10.54;100.00;97164.25;5044008;28;20067;-43
2023/11/01 09:12:06;;;;;;;8.70;2.70;;;;;;;10.59;100.00;97160.97;5046230;28;20114;-43
2023/11/01 09:14:33;;;;;;;10.48;2.55;;;;;;;10.66;100.00;97155.25;5046971;28;20135;-43
2023/11/01 09:16:59;;;;;;;9.25;2.03;;;;;;;10.73;100.00;97163.38;5044389;28;20037;-43
2023/11/01 09:19:28;;;;;;;8.32;2.35;;;;;;;10.79;100.00;97162.44;5034767;28;20050;-44
2023/11/01 09:21:56;;;;;;;14.65;1.95;;;;;;;10.81;100.00;97165.53;5038606;28;20072;-44
2023/11/01 09:24:22;;;;;;;18.70;2.30;;;;;;;10.83;100.00;97165.09;5045886;28;20076;-44
2023/11/01 09:26:49;;;;;;;20.00;3.65;;;;;;;10.83;100.00;97167.84;5046526;28;20107;-44
2023/11/01 09:29:16;;;;;;;10.88;2.20;;;;;;;10.82;100.00;97164.34;5044927;28;20156;-43
2023/11/01 09:31:45;;;;;;;7.05;1.70;;;;;;;10.80;100.00;97163.22;5042179;28;20049;-45
2023/11/01 09:34:12;;;;;;;7.38;1.10;;;;;;;10.78;100.00;97169.16;5034055;28;20534;-45
2023/11/01 09:36:40;;;;;;;9.65;3.50;;;;;;;10.75;100.00;97160.97;5046221;28;20083;-42
2023/11/01 09:39:07;;;;;;;6.82;1.52;;;;;;;10.76;100.00;97168.03;5046094;28;20049;-42
2023/11/01 09:41:44;;;;;;;12.55;1.60;;;;;;;10.77;100.00;97175.91;5028812;28;20045;-42
2023/11/01 09:44:15;;;;;;;7.30;1.70;;;;;;;10.76;100.00;97171.59;5046141;28;20080;-42
2023/11/01 09:46:43;;;;;;;8.63;2.42;;;;;;;10.76;100.00;97187.41;5046151;28;20047;-42
2023/11/01 09:49:11;;;;;;;23.42;6.65;;;;;;;10.74;100.00;97189.84;5046595;28;20694;-43
2023/11/01 09:51:39;;;;;;;19.35;4.05;;;;;;;10.71;100.00;97187.94;5045759;28;20421;-46
2023/11/01 09:54:08;;;;;;;12.75;4.22;;;;;;;10.69;100.00;97193.13;5037132;28;20467;-43
2023/11/01 09:56:41;;;;;;;8.57;2.53;;;;;;;10.66;100.00;97197.53;5045835;28;20048;-49
2023/11/01 09:59:09;;;;;;;7.20;2.53;;;;;;;10.65;100.00;97214.53;5044852;28;20053;-44
2023/11/01 10:01:37;;;;;;;5.50;1.23;;;;;;;10.66;100.00;97196.75;5046016;28;20118;-46
2023/11/01 10:04:06;;;;;;;5.25;1.05;;;;;;;10.73;100.00;97207.63;5046725;28;20123;-45
2023/11/01 10:06:35;;;;;;;8.52;1.75;;;;;;;10.67;100.00;97209.38;5045419;28;20048;-47
2023/11/01 10:09:04;;;;;;;10.13;1.27;;;;;;;10.71;100.00;97215.59;5044954;28;20037;-46
2023/11/01 10:11:31;;;;;;;2.60;0.93;;;;;;;10.70;100.00;97220.34;5045580;28;20150;-43
2023/11/01 10:14:00;;;;;;;9.07;1.70;;;;;;;10.65;100.00;97217.31;5024470;28;20044;-44
2023/11/01 10:16:27;;;;;;;3.70;0.77;;;;;;;10.57;100.00;97215.91;5049817;28;20055;-45
2023/11/01 10:18:54;;;;;;;2.97;0.65;;;;;;;10.56;100.00;97211.59;5049524;28;20076;-43
2023/11/01 10:21:27;;;;;;;2.25;0.55;;;;;;;10.40;100.00;97228.97;5050234;28;20044;-43
2023/11/01 10:23:58;;;;;;;5.13;0.80;;;;;;;10.19;100.00;97246.75;5046306;28;20040;-44
2023/11/01 10:26:30;;;;;;;2.30;0.50;;;;;;;10.03;100.00;97243.94;5050054;28;20037;-45
2023/11/01 10:28:58;;;;;;;2.63;0.40;;;;;;;9.93;100.00;97249.69;5049494;28;20049;-48
2023/11/01 10:31:25;;;;;;;1.05;0.43;;;;;;;9.87;100.00;97279.78;5048401;28;20052;-43
2023/11/01 10:33:52;;;;;;;2.83;0.40;;;;;;;9.84;100.00;97255.78;5043330;28;20048;-43
2023/11/01 10:36:20;;;;;;;4.57;0.90;;;;;;;9.91;100.00;97263.91;5047068;28;20037;-43
2023/11/01 10:38:51;;;;;;;1.83;0.40;;;;;;;10.00;100.00;97289.00;5041736;28;20046;-44
2023/11/01 10:41:20;;;;;;;3.28;0.50;;;;;;;10.01;100.00;97279.50;5048058;28;20045;-43
2023/11/01 10:43:47;;;;;;;1.10;0.50;;;;;;;9.96;100.00;97277.22;5049226;28;20597;-45
2023/11/01 10:46:15;;;;;;;1.20;0.70;;;;;;;9.91;100.00;97282.47;5049603;28;20119;-43
2023/11/01 10:48:45;;;;;;;1.35;0.40;;;;;;;9.90;100.00;97286.44;5041767;28;20040;-42
2023/11/01 10:51:13;;;;;;;1.80;1.00;;;;;;;9.86;100.00;97271.91;5049282;28;20129;-45
2023/11/01 10:53:41;;;;;;;1.27;0.50;;;;;;;9.81;100.00;97287.00;5048730;28;20582;-48
2023/11/01 10:56:08;;;;;;;4.78;1.00;;;;;;;9.77;100.00;97292.59;5032481;28;20041;-46
2023/11/01 10:58:39;;;;;;;1.08;0.50;;;;;;;9.77;100.00;97280.75;5047240;28;20045;-44
2023/11/01 11:01:06;;;;;;;1.73;0.47;;;;;;;9.81;100.00;97298.06;5040182;28;20454;-44
2023/11/01 11:04:01;;;;;;;3.45;0.50;;;;;;;9.88;100.00;97291.59;5029311;28;20654;-43
2023/11/01 11:06:44;;;;;;;6.20;2.38;;;;;;;9.86;100.00;97261.66;5040072;28;20413;-44
2023/11/01 11:09:24;;;;;;;1.25;0.40;;;;;;;9.86;100.00;97278.22;5047230;28;20104;-43
2023/11/01 11:12:15;;;;;;;5.82;0.70;;;;;;;9.81;100.00;97275.97;5045967;28;20065;-44
2023/11/01 11:14:53;;;;;;;2.17;0.35;;;;;;;9.79;100.00;97268.06;5041479;28;20056;-46
2023/11/01 11:17:23;;;;;;;4.40;0.93;;;;;;;9.75;100.00;97272.13;5047404;28;20041;-46
2023/11/01 11:20:06;;;;;;;1.58;0.60;;;;;;;9.75;100.00;97274.88;5047714;28;20056;-47
2023/11/01 11:22:55;;;;;;;4.25;0.57;;;;;;;9.77;100.00;97280.75;5045849;28;20045;-45
2023/11/01 11:25:37;;;;;;;3.53;0.80;;;;;;;9.74;100.00;97293.44;5028207;28;20042;-49
2023/11/01 11:28:22;;;;;;;3.03;0.82;;;;;;;9.74;100.00;97292.69;5047038;28;20136;-46